sensor_id;sensor_type;location;lat;lon;timestamp;pressure;altitude;pressure_sealevel;temperature;humidity
69145;BME280;56251;50.324;17.574;2022-09-09T00:00:35;101559.66;;;17.74;79.25
69145;BME280;56251;50.324;17.574;2022-09-09T00:01:52;101562.37;;;17.73;79.31
69145;BME280;56251;50.324;17.574;2022-09-09T00:04:13;101563.95;;;17.74;79.04
69145;BME280;56251;50.324;17.574;2022-09-09T00:08:13;101563.82;;;17.69;78.81
69145;BME280;56251;50.324;17.574;2022-09-09T00:10:58;101563.29;;;17.64;79.03
69145;BME280;56251;50.324;17.574;2022-09-09T00:11:19;101559.95;;;17.61;79.10
69145;BME280;56251;50.324;17.574;2022-09-09T00:14:02;101559.44;;;17.65;78.89
69145;BME280;56251;50.324;17.574;2022-09-09T00:17:18;101563.20;;;17.62;78.48
69145;BME280;56251;50.324;17.574;2022-09-09T00:18:12;101563.13;;;17.62;78.57
69145;BME280;56251;50.324;17.574;2022-09-09T00:20:33;101563.98;;;17.55;78.79
69145;BME280;56251;50.324;17.574;2022-09-09T00:21:16;101567.15;;;17.55;78.86
69145;BME280;56251;50.324;17.574;2022-09-09T00:23:43;101559.68;;;17.52;78.91
69145;BME280;56251;50.324;17.574;2022-09-09T00:24:34;101560.84;;;17.49;79.07
69145;BME280;56251;50.324;17.574;2022-09-09T00:26:49;101560.45;;;17.48;79.14
69145;BME280;56251;50.324;17.574;2022-09-09T00:27:44;101558.85;;;17.45;79.24
69145;BME280;56251;50.324;17.574;2022-09-09T00:30:16;101550.94;;;17.41;79.58
69145;BME280;56251;50.324;17.574;2022-09-09T00:30:49;101552.30;;;17.39;79.62
69145;BME280;56251;50.324;17.574;2022-09-09T00:33:24;101549.70;;;17.40;79.58
69145;BME280;56251;50.324;17.574;2022-09-09T00:36:31;101551.43;;;17.35;79.67
69145;BME280;56251;50.324;17.574;2022-09-09T00:37:19;101548.34;;;17.33;79.48
69145;BME280;56251;50.324;17.574;2022-09-09T00:39:41;101547.04;;;17.28;79.62
69145;BME280;56251;50.324;17.574;2022-09-09T00:40:35;101548.51;;;17.28;79.70
69145;BME280;56251;50.324;17.574;2022-09-09T00:42:48;101551.22;;;17.28;79.73
69145;BME280;56251;50.324;17.574;2022-09-09T00:43:40;101554.85;;;17.25;79.82
69145;BME280;56251;50.324;17.574;2022-09-09T00:54:10;101557.24;;;17.12;80.03
69145;BME280;56251;50.324;17.574;2022-09-09T00:56:16;101561.31;;;17.08;80.21
69145;BME280;56251;50.324;17.574;2022-09-09T00:57:25;101559.47;;;17.06;80.24
69145;BME280;56251;50.324;17.574;2022-09-09T00:59:31;101560.98;;;17.02;80.56
69145;BME280;56251;50.324;17.574;2022-09-09T01:00:32;101559.69;;;17.05;80.54
69145;BME280;56251;50.324;17.574;2022-09-09T01:02:43;101560.34;;;17.01;80.48
69145;BME280;56251;50.324;17.574;2022-09-09T01:03:43;101562.91;;;16.98;80.67
69145;BME280;56251;50.324;17.574;2022-09-09T01:05:53;101564.82;;;16.94;80.97
69145;BME280;56251;50.324;17.574;2022-09-09T01:06:48;101565.36;;;16.94;81.01
69145;BME280;56251;50.324;17.574;2022-09-09T01:09:59;101563.34;;;16.93;80.98
69145;BME280;56251;50.324;17.574;2022-09-09T01:12:41;101563.80;;;16.93;81.13
69145;BME280;56251;50.324;17.574;2022-09-09T01:13:12;101563.79;;;16.92;81.03
69145;BME280;56251;50.324;17.574;2022-09-09T01:15:48;101568.99;;;16.90;81.22
69145;BME280;56251;50.324;17.574;2022-09-09T01:16:19;101566.75;;;16.91;81.17
69145;BME280;56251;50.324;17.574;2022-09-09T01:18:56;101570.69;;;16.85;81.31
69145;BME280;56251;50.324;17.574;2022-09-09T01:19:37;101570.65;;;16.86;81.26
69145;BME280;56251;50.324;17.574;2022-09-09T01:22:21;101575.42;;;16.86;81.05
69145;BME280;56251;50.324;17.574;2022-09-09T01:22:52;101577.32;;;16.88;81.11
69145;BME280;56251;50.324;17.574;2022-09-09T01:28:52;101583.55;;;16.83;80.74
69145;BME280;56251;50.324;17.574;2022-09-09T01:29:21;101583.78;;;16.85;80.67
69145;BME280;56251;50.324;17.574;2022-09-09T01:32:00;101587.20;;;16.74;81.03
69145;BME280;56251;50.324;17.574;2022-09-09T01:32:53;101587.88;;;16.75;81.19
69145;BME280;56251;50.324;17.574;2022-09-09T01:35:15;101586.59;;;16.77;81.01
69145;BME280;56251;50.324;17.574;2022-09-09T01:38:18;101586.95;;;16.74;81.18
69145;BME280;56251;50.324;17.574;2022-09-09T01:39:12;101586.28;;;16.74;81.09
69145;BME280;56251;50.324;17.574;2022-09-09T01:41:24;101590.67;;;16.74;80.99
69145;BME280;56251;50.324;17.574;2022-09-09T01:42:19;101590.04;;;16.73;80.95
69145;BME280;56251;50.324;17.574;2022-09-09T01:44:30;101588.07;;;16.71;80.91
69145;BME280;56251;50.324;17.574;2022-09-09T01:45:25;101596.81;;;16.68;81.04
69145;BME280;56251;50.324;17.574;2022-09-09T01:47:37;101594.45;;;16.68;80.88
69145;BME280;56251;50.324;17.574;2022-09-09T01:48:37;101595.10;;;16.67;80.74
69145;BME280;56251;50.324;17.574;2022-09-09T01:50:49;101598.67;;;16.64;80.74
69145;BME280;56251;50.324;17.574;2022-09-09T01:51:44;101603.95;;;16.66;80.67
69145;BME280;56251;50.324;17.574;2022-09-09T01:53:56;101601.91;;;16.63;80.55
69145;BME280;56251;50.324;17.574;2022-09-09T01:54:51;101602.55;;;16.62;80.52
69145;BME280;56251;50.324;17.574;2022-09-09T01:57:06;101608.39;;;16.62;80.29
69145;BME280;56251;50.324;17.574;2022-09-09T01:58:06;101608.22;;;16.60;80.24
69145;BME280;56251;50.324;17.574;2022-09-09T02:00:11;101606.73;;;16.57;80.11
69145;BME280;56251;50.324;17.574;2022-09-09T02:01:32;101612.13;;;16.53;80.20
69145;BME280;56251;50.324;17.574;2022-09-09T02:03:23;101609.46;;;16.45;80.45
69145;BME280;56251;50.324;17.574;2022-09-09T02:06:34;101613.55;;;16.45;80.33
69145;BME280;56251;50.324;17.574;2022-09-09T02:07:56;101615.99;;;16.45;80.19
69145;BME280;56251;50.324;17.574;2022-09-09T02:09:40;101615.30;;;16.40;80.06
69145;BME280;56251;50.324;17.574;2022-09-09T02:11:05;101615.45;;;16.40;79.89
69145;BME280;56251;50.324;17.574;2022-09-09T02:12:53;101617.13;;;16.42;79.73
69145;BME280;56251;50.324;17.574;2022-09-09T02:14:18;101618.73;;;16.37;79.66
69145;BME280;56251;50.324;17.574;2022-09-09T02:16:04;101618.19;;;16.36;79.68
69145;BME280;56251;50.324;17.574;2022-09-09T02:17:31;101618.98;;;16.37;79.54
69145;BME280;56251;50.324;17.574;2022-09-09T02:19:14;101620.09;;;16.37;79.57
69145;BME280;56251;50.324;17.574;2022-09-09T02:20:38;101619.65;;;16.36;79.63
69145;BME280;56251;50.324;17.574;2022-09-09T02:22:22;101620.78;;;16.36;79.75
69145;BME280;56251;50.324;17.574;2022-09-09T02:23:47;101617.26;;;16.36;79.85
69145;BME280;56251;50.324;17.574;2022-09-09T02:25:29;101620.56;;;16.33;80.12
69145;BME280;56251;50.324;17.574;2022-09-09T02:26:57;101616.66;;;16.36;80.18
69145;BME280;56251;50.324;17.574;2022-09-09T02:28:36;101617.32;;;16.35;80.24
69145;BME280;56251;50.324;17.574;2022-09-09T02:30:04;101618.98;;;16.37;80.43
69145;BME280;56251;50.324;17.574;2022-09-09T02:31:45;101618.30;;;16.42;80.36
69145;BME280;56251;50.324;17.574;2022-09-09T02:33:12;101623.76;;;16.41;80.31
69145;BME280;56251;50.324;17.574;2022-09-09T02:34:56;101623.89;;;16.42;80.40
69145;BME280;56251;50.324;17.574;2022-09-09T02:36:24;101619.66;;;16.38;80.40
69145;BME280;56251;50.324;17.574;2022-09-09T02:38:04;101617.08;;;16.43;80.24
69145;BME280;56251;50.324;17.574;2022-09-09T02:39:30;101616.80;;;16.40;80.11
69145;BME280;56251;50.324;17.574;2022-09-09T02:41:10;101617.45;;;16.41;80.12
69145;BME280;56251;50.324;17.574;2022-09-09T02:42:40;101617.80;;;16.42;80.05
69145;BME280;56251;50.324;17.574;2022-09-09T02:44:18;101616.58;;;16.43;79.72
69145;BME280;56251;50.324;17.574;2022-09-09T02:45:57;101619.05;;;16.42;79.85
69145;BME280;56251;50.324;17.574;2022-09-09T02:47:36;101615.25;;;16.41;79.79
69145;BME280;56251;50.324;17.574;2022-09-09T02:49:03;101617.66;;;16.44;79.76
69145;BME280;56251;50.324;17.574;2022-09-09T02:52:14;101617.09;;;16.45;79.78
69145;BME280;56251;50.324;17.574;2022-09-09T02:54:14;101620.41;;;16.40;80.18
69145;BME280;56251;50.324;17.574;2022-09-09T02:57:23;101620.52;;;16.39;80.69
69145;BME280;56251;50.324;17.574;2022-09-09T02:58:44;101622.06;;;16.37;80.94
69145;BME280;56251;50.324;17.574;2022-09-09T03:00:29;101622.95;;;16.40;80.89
69145;BME280;56251;50.324;17.574;2022-09-09T03:01:51;101620.58;;;16.39;80.92
69145;BME280;56251;50.324;17.574;2022-09-09T03:03:36;101619.98;;;16.46;80.85
69145;BME280;56251;50.324;17.574;2022-09-09T03:04:58;101624.66;;;16.42;80.99
69145;BME280;56251;50.324;17.574;2022-09-09T03:06:42;101626.02;;;16.45;81.03
69145;BME280;56251;50.324;17.574;2022-09-09T03:08:04;101625.02;;;16.48;80.93
69145;BME280;56251;50.324;17.574;2022-09-09T03:09:49;101625.31;;;16.49;80.96
69145;BME280;56251;50.324;17.574;2022-09-09T03:11:11;101632.91;;;16.57;80.78
69145;BME280;56251;50.324;17.574;2022-09-09T03:12:55;101634.28;;;16.57;80.69
69145;BME280;56251;50.324;17.574;2022-09-09T03:14:18;101636.22;;;16.64;80.56
69145;BME280;56251;50.324;17.574;2022-09-09T03:16:02;101632.77;;;16.67;80.37
69145;BME280;56251;50.324;17.574;2022-09-09T03:17:26;101635.13;;;16.65;80.27
69145;BME280;56251;50.324;17.574;2022-09-09T03:19:10;101634.64;;;16.69;80.17
69145;BME280;56251;50.324;17.574;2022-09-09T03:20:33;101633.47;;;16.71;79.88
69145;BME280;56251;50.324;17.574;2022-09-09T03:22:16;101634.49;;;16.67;79.87
69145;BME280;56251;50.324;17.574;2022-09-09T03:23:40;101637.48;;;16.66;79.92
69145;BME280;56251;50.324;17.574;2022-09-09T03:25:22;101639.39;;;16.62;79.89
69145;BME280;56251;50.324;17.574;2022-09-09T03:26:46;101640.66;;;16.62;79.64
69145;BME280;56251;50.324;17.574;2022-09-09T03:28:30;101640.51;;;16.55;79.54
69145;BME280;56251;50.324;17.574;2022-09-09T03:29:52;101639.02;;;16.56;79.46
69145;BME280;56251;50.324;17.574;2022-09-09T03:31:36;101643.72;;;16.53;79.40
69145;BME280;56251;50.324;17.574;2022-09-09T03:32:58;101636.87;;;16.46;79.36
69145;BME280;56251;50.324;17.574;2022-09-09T03:34:43;101641.76;;;16.47;79.27
69145;BME280;56251;50.324;17.574;2022-09-09T03:36:05;101644.52;;;16.50;78.92
69145;BME280;56251;50.324;17.574;2022-09-09T03:37:49;101648.81;;;16.46;78.96
69145;BME280;56251;50.324;17.574;2022-09-09T03:39:13;101645.16;;;16.50;78.72
69145;BME280;56251;50.324;17.574;2022-09-09T03:40:56;101648.84;;;16.42;78.82
69145;BME280;56251;50.324;17.574;2022-09-09T03:42:20;101648.38;;;16.42;78.87
69145;BME280;56251;50.324;17.574;2022-09-09T03:44:07;101648.21;;;16.37;79.01
69145;BME280;56251;50.324;17.574;2022-09-09T03:45:26;101649.68;;;16.42;78.88
69145;BME280;56251;50.324;17.574;2022-09-09T03:47:13;101654.13;;;16.44;78.74
69145;BME280;56251;50.324;17.574;2022-09-09T03:48:33;101657.64;;;16.40;78.70
69145;BME280;56251;50.324;17.574;2022-09-09T03:50:19;101655.96;;;16.41;78.78
69145;BME280;56251;50.324;17.574;2022-09-09T03:51:39;101657.60;;;16.41;78.62
69145;BME280;56251;50.324;17.574;2022-09-09T03:53:26;101657.72;;;16.34;78.82
69145;BME280;56251;50.324;17.574;2022-09-09T03:54:46;101657.72;;;16.27;79.00
69145;BME280;56251;50.324;17.574;2022-09-09T03:56:32;101658.13;;;16.25;79.03
69145;BME280;56251;50.324;17.574;2022-09-09T03:57:52;101658.36;;;16.25;78.96
69145;BME280;56251;50.324;17.574;2022-09-09T03:59:38;101656.52;;;16.20;79.05
69145;BME280;56251;50.324;17.574;2022-09-09T04:01:03;101659.26;;;16.22;79.13
69145;BME280;56251;50.324;17.574;2022-09-09T04:02:44;101658.04;;;16.25;78.96
69145;BME280;56251;50.324;17.574;2022-09-09T04:04:09;101658.24;;;16.19;78.88
69145;BME280;56251;50.324;17.574;2022-09-09T04:05:52;101658.84;;;16.21;78.80
69145;BME280;56251;50.324;17.574;2022-09-09T04:07:15;101659.33;;;16.18;78.83
69145;BME280;56251;50.324;17.574;2022-09-09T04:08:58;101658.88;;;16.16;78.81
69145;BME280;56251;50.324;17.574;2022-09-09T04:10:21;101662.62;;;16.15;78.81
69145;BME280;56251;50.324;17.574;2022-09-09T04:12:06;101660.28;;;16.11;78.78
69145;BME280;56251;50.324;17.574;2022-09-09T04:13:28;101659.04;;;16.11;78.75
69145;BME280;56251;50.324;17.574;2022-09-09T04:15:12;101662.27;;;16.08;78.62
69145;BME280;56251;50.324;17.574;2022-09-09T04:16:34;101663.75;;;16.07;78.71
69145;BME280;56251;50.324;17.574;2022-09-09T04:18:19;101662.88;;;16.08;78.73
69145;BME280;56251;50.324;17.574;2022-09-09T04:19:43;101666.04;;;16.04;78.78
69145;BME280;56251;50.324;17.574;2022-09-09T04:21:26;101667.09;;;16.06;78.73
69145;BME280;56251;50.324;17.574;2022-09-09T04:22:49;101667.41;;;16.07;78.56
69145;BME280;56251;50.324;17.574;2022-09-09T04:24:32;101670.49;;;16.02;78.63
69145;BME280;56251;50.324;17.574;2022-09-09T04:25:57;101668.35;;;16.05;78.52
69145;BME280;56251;50.324;17.574;2022-09-09T04:27:38;101675.41;;;16.03;78.41
69145;BME280;56251;50.324;17.574;2022-09-09T04:29:04;101670.63;;;16.03;78.46
69145;BME280;56251;50.324;17.574;2022-09-09T04:30:45;101669.49;;;15.96;78.74
69145;BME280;56251;50.324;17.574;2022-09-09T04:32:10;101675.75;;;15.95;78.88
69145;BME280;56251;50.324;17.574;2022-09-09T04:33:52;101672.87;;;15.92;79.04
69145;BME280;56251;50.324;17.574;2022-09-09T04:35:17;101672.79;;;15.89;79.15
69145;BME280;56251;50.324;17.574;2022-09-09T04:36:58;101672.59;;;15.90;79.26
69145;BME280;56251;50.324;17.574;2022-09-09T04:38:29;101675.83;;;15.89;79.30
69145;BME280;56251;50.324;17.574;2022-09-09T04:40:07;101671.16;;;15.94;79.28
69145;BME280;56251;50.324;17.574;2022-09-09T04:41:36;101670.08;;;15.98;79.04
69145;BME280;56251;50.324;17.574;2022-09-09T04:43:15;101673.08;;;15.97;79.00
69145;BME280;56251;50.324;17.574;2022-09-09T04:44:43;101674.50;;;15.98;78.91
69145;BME280;56251;50.324;17.574;2022-09-09T04:46:22;101675.23;;;15.96;78.94
69145;BME280;56251;50.324;17.574;2022-09-09T04:47:49;101674.20;;;15.97;78.93
69145;BME280;56251;50.324;17.574;2022-09-09T04:49:32;101675.57;;;15.96;78.95
69145;BME280;56251;50.324;17.574;2022-09-09T04:51:00;101673.38;;;15.96;79.05
69145;BME280;56251;50.324;17.574;2022-09-09T04:52:38;101674.16;;;15.98;79.09
69145;BME280;56251;50.324;17.574;2022-09-09T04:54:06;101672.01;;;15.97;79.05
69145;BME280;56251;50.324;17.574;2022-09-09T04:55:44;101676.63;;;16.01;79.01
69145;BME280;56251;50.324;17.574;2022-09-09T04:57:15;101678.27;;;15.99;78.99
69145;BME280;56251;50.324;17.574;2022-09-09T04:58:51;101682.64;;;15.97;79.20
69145;BME280;56251;50.324;17.574;2022-09-09T05:00:21;101679.02;;;15.96;79.23
69145;BME280;56251;50.324;17.574;2022-09-09T05:01:57;101680.90;;;15.82;79.50
69145;BME280;56251;50.324;17.574;2022-09-09T05:03:28;101684.05;;;15.86;79.53
69145;BME280;56251;50.324;17.574;2022-09-09T05:05:08;101680.95;;;15.82;79.69
69145;BME280;56251;50.324;17.574;2022-09-09T05:06:35;101686.45;;;15.88;79.59
69145;BME280;56251;50.324;17.574;2022-09-09T05:08:17;101690.15;;;15.89;79.53
69145;BME280;56251;50.324;17.574;2022-09-09T05:09:42;101688.00;;;15.90;79.53
69145;BME280;56251;50.324;17.574;2022-09-09T05:11:25;101685.28;;;15.77;79.82
69145;BME280;56251;50.324;17.574;2022-09-09T05:12:54;101688.50;;;15.68;80.16
69145;BME280;56251;50.324;17.574;2022-09-09T05:14:32;101684.47;;;15.70;80.30
69145;BME280;56251;50.324;17.574;2022-09-09T05:16:03;101684.22;;;15.72;80.19
69145;BME280;56251;50.324;17.574;2022-09-09T05:17:38;101685.95;;;15.74;80.20
69145;BME280;56251;50.324;17.574;2022-09-09T05:19:09;101686.66;;;15.82;80.03
69145;BME280;56251;50.324;17.574;2022-09-09T05:20:44;101684.38;;;15.86;79.89
69145;BME280;56251;50.324;17.574;2022-09-09T05:22:19;101686.95;;;15.91;79.70
69145;BME280;56251;50.324;17.574;2022-09-09T05:23:50;101683.56;;;15.90;79.68
69145;BME280;56251;50.324;17.574;2022-09-09T05:25:27;101676.08;;;15.99;79.61
69145;BME280;56251;50.324;17.574;2022-09-09T05:26:57;101680.98;;;16.03;79.52
69145;BME280;56251;50.324;17.574;2022-09-09T05:28:36;101680.16;;;16.04;79.53
69145;BME280;56251;50.324;17.574;2022-09-09T05:30:05;101680.70;;;16.06;79.69
69145;BME280;56251;50.324;17.574;2022-09-09T05:31:42;101686.29;;;16.08;79.68
69145;BME280;56251;50.324;17.574;2022-09-09T05:33:11;101686.02;;;16.15;79.54
69145;BME280;56251;50.324;17.574;2022-09-09T05:34:54;101689.73;;;16.20;79.36
69145;BME280;56251;50.324;17.574;2022-09-09T05:36:19;101693.02;;;16.25;79.30
69145;BME280;56251;50.324;17.574;2022-09-09T05:38:00;101690.92;;;16.29;79.33
69145;BME280;56251;50.324;17.574;2022-09-09T05:39:28;101691.89;;;16.28;79.42
69145;BME280;56251;50.324;17.574;2022-09-09T05:41:07;101692.84;;;16.36;79.33
69145;BME280;56251;50.324;17.574;2022-09-09T05:42:38;101694.20;;;16.34;79.32
69145;BME280;56251;50.324;17.574;2022-09-09T05:44:15;101690.89;;;16.36;79.48
69145;BME280;56251;50.324;17.574;2022-09-09T05:45:58;101688.50;;;16.43;79.52
69145;BME280;56251;50.324;17.574;2022-09-09T05:47:21;101687.26;;;16.44;79.56
69145;BME280;56251;50.324;17.574;2022-09-09T05:48:53;101687.30;;;16.53;79.50
69145;BME280;56251;50.324;17.574;2022-09-09T05:50:27;101684.48;;;16.51;79.58
69145;BME280;56251;50.324;17.574;2022-09-09T05:52:00;101684.67;;;16.61;79.47
69145;BME280;56251;50.324;17.574;2022-09-09T05:53:34;101683.80;;;16.67;79.42
69145;BME280;56251;50.324;17.574;2022-09-09T05:55:07;101684.23;;;16.67;79.41
69145;BME280;56251;50.324;17.574;2022-09-09T05:56:41;101687.22;;;16.70;79.47
69145;BME280;56251;50.324;17.574;2022-09-09T05:58:13;101688.38;;;16.70;79.63
69145;BME280;56251;50.324;17.574;2022-09-09T05:59:47;101688.74;;;16.80;79.55
69145;BME280;56251;50.324;17.574;2022-09-09T06:01:23;101689.11;;;16.88;79.50
69145;BME280;56251;50.324;17.574;2022-09-09T06:02:53;101687.57;;;16.90;79.66
69145;BME280;56251;50.324;17.574;2022-09-09T06:04:29;101681.18;;;16.96;79.71
69145;BME280;56251;50.324;17.574;2022-09-09T06:06:02;101680.51;;;16.97;79.86
69145;BME280;56251;50.324;17.574;2022-09-09T06:07:36;101679.72;;;17.01;80.24
69145;BME280;56251;50.324;17.574;2022-09-09T06:09:10;101675.33;;;17.08;80.31
69145;BME280;56251;50.324;17.574;2022-09-09T06:10:44;101675.80;;;17.12;80.39
69145;BME280;56251;50.324;17.574;2022-09-09T06:12:17;101671.88;;;17.21;80.23
69145;BME280;56251;50.324;17.574;2022-09-09T06:13:50;101670.47;;;17.28;80.16
69145;BME280;56251;50.324;17.574;2022-09-09T06:15:23;101671.12;;;17.41;80.16
69145;BME280;56251;50.324;17.574;2022-09-09T06:16:58;101670.29;;;17.50;80.17
69145;BME280;56251;50.324;17.574;2022-09-09T06:18:30;101670.23;;;17.56;80.11
69145;BME280;56251;50.324;17.574;2022-09-09T06:20:05;101669.42;;;17.62;79.92
69145;BME280;56251;50.324;17.574;2022-09-09T06:21:37;101668.13;;;17.66;79.90
69145;BME280;56251;50.324;17.574;2022-09-09T06:23:12;101668.68;;;17.77;79.72
69145;BME280;56251;50.324;17.574;2022-09-09T06:24:42;101668.56;;;17.90;79.45
69145;BME280;56251;50.324;17.574;2022-09-09T06:26:19;101667.20;;;18.00;79.41
69145;BME280;56251;50.324;17.574;2022-09-09T06:27:50;101666.78;;;18.11;78.96
69145;BME280;56251;50.324;17.574;2022-09-09T06:29:26;101668.58;;;18.21;78.89
69145;BME280;56251;50.324;17.574;2022-09-09T06:31:06;101669.85;;;18.33;78.76
69145;BME280;56251;50.324;17.574;2022-09-09T06:32:32;101668.05;;;18.48;78.47
69145;BME280;56251;50.324;17.574;2022-09-09T06:34:12;101664.33;;;18.68;79.02
69145;BME280;56251;50.324;17.574;2022-09-09T06:35:40;101663.13;;;18.84;78.69
69145;BME280;56251;50.324;17.574;2022-09-09T06:37:18;101671.34;;;19.03;78.23
69145;BME280;56251;50.324;17.574;2022-09-09T06:38:46;101670.49;;;19.27;77.01
69145;BME280;56251;50.324;17.574;2022-09-09T06:40:29;101668.90;;;19.57;76.58
69145;BME280;56251;50.324;17.574;2022-09-09T06:41:52;101664.76;;;19.95;76.67
69145;BME280;56251;50.324;17.574;2022-09-09T06:43:36;101668.94;;;20.29;74.75
69145;BME280;56251;50.324;17.574;2022-09-09T06:44:59;101665.39;;;20.61;74.11
69145;BME280;56251;50.324;17.574;2022-09-09T06:46:42;101671.98;;;21.12;72.51
69145;BME280;56251;50.324;17.574;2022-09-09T06:48:05;101663.84;;;21.38;71.62
69145;BME280;56251;50.324;17.574;2022-09-09T06:49:49;101665.05;;;21.87;67.76
69145;BME280;56251;50.324;17.574;2022-09-09T06:51:13;101665.61;;;22.11;66.48
69145;BME280;56251;50.324;17.574;2022-09-09T06:52:56;101662.28;;;22.48;63.88
69145;BME280;56251;50.324;17.574;2022-09-09T06:54:21;101661.26;;;22.76;62.29
69145;BME280;56251;50.324;17.574;2022-09-09T06:57:29;101657.38;;;23.55;57.70
69145;BME280;56251;50.324;17.574;2022-09-09T06:59:18;101654.95;;;23.74;57.61
69145;BME280;56251;50.324;17.574;2022-09-09T07:00:35;101656.80;;;24.01;57.90
69145;BME280;56251;50.324;17.574;2022-09-09T07:02:25;101661.26;;;24.37;55.11
69145;BME280;56251;50.324;17.574;2022-09-09T07:03:47;101662.14;;;24.45;51.96
69145;BME280;56251;50.324;17.574;2022-09-09T07:05:31;101661.95;;;24.69;50.58
69145;BME280;56251;50.324;17.574;2022-09-09T07:06:53;101661.81;;;24.91;51.81
69145;BME280;56251;50.324;17.574;2022-09-09T07:08:37;101662.34;;;25.18;51.65
69145;BME280;56251;50.324;17.574;2022-09-09T07:10:00;101658.02;;;25.30;47.47
69145;BME280;56251;50.324;17.574;2022-09-09T07:11:47;101656.87;;;25.56;48.75
69145;BME280;56251;50.324;17.574;2022-09-09T07:13:06;101659.76;;;25.78;48.56
69145;BME280;56251;50.324;17.574;2022-09-09T07:14:51;101656.14;;;25.95;46.22
69145;BME280;56251;50.324;17.574;2022-09-09T07:16:15;101658.63;;;26.09;45.35
69145;BME280;56251;50.324;17.574;2022-09-09T07:18:00;101654.06;;;26.33;45.77
69145;BME280;56251;50.324;17.574;2022-09-09T07:19:21;101649.60;;;26.55;45.72
69145;BME280;56251;50.324;17.574;2022-09-09T07:21:06;101649.43;;;26.86;43.60
69145;BME280;56251;50.324;17.574;2022-09-09T07:22:27;101648.29;;;27.05;43.09
69145;BME280;56251;50.324;17.574;2022-09-09T07:24:14;101647.25;;;27.08;40.07
69145;BME280;56251;50.324;17.574;2022-09-09T07:25:34;101651.41;;;27.15;40.89
69145;BME280;56251;50.324;17.574;2022-09-09T07:27:21;101652.37;;;27.25;42.02
69145;BME280;56251;50.324;17.574;2022-09-09T07:28:41;101655.96;;;27.26;41.22
69145;BME280;56251;50.324;17.574;2022-09-09T07:30:27;101655.09;;;27.20;40.17
69145;BME280;56251;50.324;17.574;2022-09-09T07:31:47;101653.92;;;27.29;41.30
69145;BME280;56251;50.324;17.574;2022-09-09T07:33:35;101650.13;;;27.30;40.75
69145;BME280;56251;50.324;17.574;2022-09-09T07:34:54;101645.33;;;27.25;41.06
69145;BME280;56251;50.324;17.574;2022-09-09T07:36:41;101646.27;;;27.32;42.26
69145;BME280;56251;50.324;17.574;2022-09-09T07:38:01;101644.55;;;27.27;41.05
69145;BME280;56251;50.324;17.574;2022-09-09T07:39:48;101646.37;;;27.30;40.43
69145;BME280;56251;50.324;17.574;2022-09-09T07:41:08;101641.46;;;27.22;39.76
69145;BME280;56251;50.324;17.574;2022-09-09T07:42:56;101646.20;;;27.28;39.38
69145;BME280;56251;50.324;17.574;2022-09-09T07:44:19;101648.41;;;27.25;40.83
69145;BME280;56251;50.324;17.574;2022-09-09T07:46:02;101647.87;;;27.18;39.70
69145;BME280;56251;50.324;17.574;2022-09-09T07:47:28;101647.03;;;27.23;39.58
69145;BME280;56251;50.324;17.574;2022-09-09T07:49:15;101647.23;;;27.31;40.46
69145;BME280;56251;50.324;17.574;2022-09-09T07:50:35;101648.99;;;27.29;39.26
69145;BME280;56251;50.324;17.574;2022-09-09T07:52:22;101652.19;;;27.28;39.23
69145;BME280;56251;50.324;17.574;2022-09-09T07:53:41;101654.37;;;27.30;39.70
69145;BME280;56251;50.324;17.574;2022-09-09T07:55:29;101656.96;;;27.43;39.07
69145;BME280;56251;50.324;17.574;2022-09-09T07:56:48;101656.18;;;27.47;38.53
69145;BME280;56251;50.324;17.574;2022-09-09T07:58:36;101659.70;;;27.45;38.48
69145;BME280;56251;50.324;17.574;2022-09-09T07:59:55;101659.82;;;27.48;38.55
69145;BME280;56251;50.324;17.574;2022-09-09T08:01:48;101656.68;;;27.38;38.97
69145;BME280;56251;50.324;17.574;2022-09-09T08:03:05;101657.88;;;27.32;39.22
69145;BME280;56251;50.324;17.574;2022-09-09T08:04:52;101655.11;;;27.28;39.36
69145;BME280;56251;50.324;17.574;2022-09-09T08:06:12;101656.30;;;27.28;39.44
69145;BME280;56251;50.324;17.574;2022-09-09T08:08:02;101655.05;;;27.28;39.95
69145;BME280;56251;50.324;17.574;2022-09-09T08:09:20;101655.13;;;27.34;40.72
69145;BME280;56251;50.324;17.574;2022-09-09T08:11:14;101653.84;;;27.42;40.07
69145;BME280;56251;50.324;17.574;2022-09-09T08:12:26;101656.66;;;27.44;40.26
69145;BME280;56251;50.324;17.574;2022-09-09T08:14:21;101653.02;;;27.47;41.09
69145;BME280;56251;50.324;17.574;2022-09-09T08:15:33;101651.84;;;27.55;39.91
69145;BME280;56251;50.324;17.574;2022-09-09T08:17:28;101655.26;;;27.52;39.38
69145;BME280;56251;50.324;17.574;2022-09-09T08:18:40;101654.76;;;27.53;38.26
69145;BME280;56251;50.324;17.574;2022-09-09T08:20:36;101653.05;;;27.59;37.88
69145;BME280;56251;50.324;17.574;2022-09-09T08:21:47;101654.23;;;27.71;38.49
69145;BME280;56251;50.324;17.574;2022-09-09T08:23:45;101652.94;;;27.80;38.61
69145;BME280;56251;50.324;17.574;2022-09-09T08:24:54;101648.87;;;27.78;37.51
69145;BME280;56251;50.324;17.574;2022-09-09T08:26:52;101650.63;;;27.88;37.11
69145;BME280;56251;50.324;17.574;2022-09-09T08:28:02;101649.91;;;27.96;37.68
69145;BME280;56251;50.324;17.574;2022-09-09T08:29:59;101653.59;;;28.08;37.71
69145;BME280;56251;50.324;17.574;2022-09-09T08:31:12;101652.79;;;28.09;36.82
69145;BME280;56251;50.324;17.574;2022-09-09T08:33:05;101655.45;;;28.08;36.60
69145;BME280;56251;50.324;17.574;2022-09-09T08:34:18;101657.21;;;28.11;37.49